Time;durP1;ratioP1;P1;durP2;ratioP2;P2;SDS_P1;SDS_P2;PMS_P1;PMS_P2;Temp;Humidity;BMP_temperature;BMP_pressure;BME280_temperature;BME280_humidity;BME280_pressure;Samples;Min_cycle;Max_cycle;Signal;HPM_P1;HPM_P2
2021/07/19 00:01:25;;;;;;;10.95;3.67;;;;;;;;;;3596367;39;20028;-67
2021/07/19 00:03:50;;;;;;;7.57;3.83;;;;;;;;;;3597782;39;20036;-66
2021/07/19 00:06:15;;;;;;;6.93;4.23;;;;;;;;;;3595802;39;20028;-66
2021/07/19 00:08:40;;;;;;;12.37;4.30;;;;;;;;;;3597569;39;20050;-67
2021/07/19 00:11:06;;;;;;;8.33;4.10;;;;;;;;;;3595979;39;20086;-66
2021/07/19 00:13:31;;;;;;;9.57;4.23;;;;;;;;;;3595193;39;20028;-67
2021/07/19 00:15:56;;;;;;;10.00;4.17;;;;;;;;;;3596737;39;20032;-66
2021/07/19 00:18:21;;;;;;;9.03;4.40;;;;;;;;;;3594369;39;20019;-67
2021/07/19 00:20:47;;;;;;;9.98;4.57;;;;;;;;;;3596346;39;20028;-67
2021/07/19 00:23:12;;;;;;;14.27;5.10;;;;;;;;;;3595447;39;20040;-66
2021/07/19 00:25:37;;;;;;;13.77;4.97;;;;;;;;;;3596768;39;20475;-66
2021/07/19 00:28:03;;;;;;;8.97;5.07;;;;;;;;;;3596178;39;20028;-66
2021/07/19 00:30:28;;;;;;;9.73;4.80;;;;;;;;;;3594140;39;20032;-67
2021/07/19 00:32:55;;;;;;;9.70;5.00;;;;;;;;;;3596011;39;20046;-67
2021/07/19 00:35:20;;;;;;;9.63;5.20;;;;;;;;;;3595417;39;20036;-66
2021/07/19 00:37:45;;;;;;;14.87;5.57;;;;;;;;;;3592923;39;20071;-66
2021/07/19 00:40:11;;;;;;;12.50;5.05;;;;;;;;;;3594812;39;20031;-67
2021/07/19 00:42:37;;;;;;;13.05;5.20;;;;;;;;;;3593760;39;20036;-66
2021/07/19 00:45:03;;;;;;;12.82;5.10;;;;;;;;;;3594269;39;20036;-66
2021/07/19 00:47:28;;;;;;;9.43;5.10;;;;;;;;;;3594021;39;20043;-66
2021/07/19 00:49:53;;;;;;;9.57;5.15;;;;;;;;;;3594293;39;20132;-66
2021/07/19 00:52:19;;;;;;;12.23;5.38;;;;;;;;;;3593419;39;20051;-67
2021/07/19 00:54:44;;;;;;;16.98;5.50;;;;;;;;;;3593332;39;20031;-67
2021/07/19 00:57:11;;;;;;;8.63;5.22;;;;;;;;;;3596331;39;20031;-67
2021/07/19 00:59:38;;;;;;;13.57;5.35;;;;;;;;;;3596103;39;20043;-67
2021/07/19 01:02:03;;;;;;;13.05;5.20;;;;;;;;;;3596130;39;20035;-67
2021/07/19 01:04:30;;;;;;;15.23;5.80;;;;;;;;;;3593453;39;20307;-67
2021/07/19 01:06:57;;;;;;;14.52;5.10;;;;;;;;;;3594791;39;20023;-67
2021/07/19 01:09:25;;;;;;;13.73;5.50;;;;;;;;;;3595910;39;20316;-66
2021/07/19 01:11:50;;;;;;;14.85;5.22;;;;;;;;;;3594832;39;20047;-66
2021/07/19 01:14:16;;;;;;;12.57;4.80;;;;;;;;;;3596574;39;20404;-67
2021/07/19 01:16:42;;;;;;;12.25;4.90;;;;;;;;;;3594696;39;20036;-67
2021/07/19 01:19:09;;;;;;;13.52;4.75;;;;;;;;;;3595573;39;20046;-67
2021/07/19 01:21:35;;;;;;;14.35;4.85;;;;;;;;;;3594521;39;20031;-67
2021/07/19 01:24:02;;;;;;;12.50;4.82;;;;;;;;;;3595409;39;20290;-67
2021/07/19 01:26:29;;;;;;;15.57;5.38;;;;;;;;;;3594017;39;20078;-67
2021/07/19 01:28:55;;;;;;;13.68;4.97;;;;;;;;;;3595251;39;20064;-67
2021/07/19 01:31:21;;;;;;;16.45;5.97;;;;;;;;;;3586618;39;20125;-67
2021/07/19 01:33:46;;;;;;;12.57;4.60;;;;;;;;;;3596127;39;20031;-66
2021/07/19 01:36:11;;;;;;;15.43;4.97;;;;;;;;;;3596269;39;20067;-67
2021/07/19 01:38:55;;;;;;;13.07;5.05;;;;;;;;;;3593824;39;20035;-66
2021/07/19 01:41:21;;;;;;;21.63;5.32;;;;;;;;;;3594405;39;20048;-66
2021/07/19 01:43:47;;;;;;;13.65;4.97;;;;;;;;;;3594987;39;20826;-67
2021/07/19 01:46:16;;;;;;;13.75;5.35;;;;;;;;;;3594062;39;20545;-66
2021/07/19 01:48:42;;;;;;;13.07;5.10;;;;;;;;;;3595270;39;20028;-66
2021/07/19 01:51:09;;;;;;;14.98;5.53;;;;;;;;;;3596563;39;20043;-67
2021/07/19 01:53:42;;;;;;;14.98;5.57;;;;;;;;;;3600287;39;20034;-66
2021/07/19 01:56:08;;;;;;;15.38;5.55;;;;;;;;;;3594574;39;20436;-66
2021/07/19 01:58:35;;;;;;;17.20;5.95;;;;;;;;;;3596285;39;20032;-67
2021/07/19 02:01:07;;;;;;;15.10;5.70;;;;;;;;;;3594728;39;20104;-67
2021/07/19 02:03:33;;;;;;;17.33;6.63;;;;;;;;;;3598131;39;20039;-67
2021/07/19 02:05:59;;;;;;;14.93;5.53;;;;;;;;;;3595826;39;20040;-67
2021/07/19 02:08:25;;;;;;;15.70;5.60;;;;;;;;;;3596323;39;20023;-66
2021/07/19 02:11:11;;;;;;;12.95;5.88;;;;;;;;;;3595164;39;20075;-67
2021/07/19 02:13:37;;;;;;;21.92;6.28;;;;;;;;;;3596481;39;20035;-67
2021/07/19 02:16:02;;;;;;;13.43;5.57;;;;;;;;;;3587734;39;20044;-67
2021/07/19 02:18:31;;;;;;;17.02;5.82;;;;;;;;;;3595135;39;20040;-66
2021/07/19 02:20:57;;;;;;;14.38;5.40;;;;;;;;;;3594806;39;20044;-66
2021/07/19 02:23:23;;;;;;;14.50;5.70;;;;;;;;;;3596087;39;20117;-66
2021/07/19 02:25:58;;;;;;;16.73;5.55;;;;;;;;;;3597917;39;20036;-66
2021/07/19 02:28:25;;;;;;;18.67;5.35;;;;;;;;;;3598064;39;20032;-67
2021/07/19 02:30:51;;;;;;;18.77;5.55;;;;;;;;;;3595891;39;20044;-67
2021/07/19 02:33:20;;;;;;;13.50;5.40;;;;;;;;;;3599396;39;20046;-67
2021/07/19 02:35:47;;;;;;;12.77;4.80;;;;;;;;;;3596288;39;20520;-67
2021/07/19 02:38:12;;;;;;;20.50;5.43;;;;;;;;;;3599564;39;20028;-67
2021/07/19 02:40:44;;;;;;;17.08;5.63;;;;;;;;;;3598400;39;20051;-67
2021/07/19 02:43:10;;;;;;;16.13;5.43;;;;;;;;;;3595448;39;20532;-66
2021/07/19 02:45:36;;;;;;;20.75;5.50;;;;;;;;;;3597654;39;20054;-66
2021/07/19 02:48:02;;;;;;;17.67;5.10;;;;;;;;;;3594953;39;20044;-66
2021/07/19 02:50:35;;;;;;;21.35;5.18;;;;;;;;;;3596534;39;20172;-66
2021/07/19 02:53:00;;;;;;;18.07;4.70;;;;;;;;;;3597681;39;20849;-67
2021/07/19 02:55:26;;;;;;;21.52;6.18;;;;;;;;;;3595971;39;20039;-67
2021/07/19 02:57:52;;;;;;;19.80;4.85;;;;;;;;;;3597576;39;20035;-67
2021/07/19 03:00:18;;;;;;;16.75;4.47;;;;;;;;;;3595769;39;20043;-66
2021/07/19 03:02:51;;;;;;;19.73;4.05;;;;;;;;;;3597155;39;20035;-66
2021/07/19 03:05:17;;;;;;;19.27;4.60;;;;;;;;;;3595269;39;20042;-66
2021/07/19 03:07:43;;;;;;;23.50;4.93;;;;;;;;;;3600297;39;20039;-66
2021/07/19 03:10:08;;;;;;;19.17;4.63;;;;;;;;;;3597077;39;20257;-66
2021/07/19 03:12:34;;;;;;;20.30;4.88;;;;;;;;;;3598042;39;20972;-66
2021/07/19 03:15:00;;;;;;;14.38;4.13;;;;;;;;;;3595527;39;20051;-67
2021/07/19 03:17:26;;;;;;;18.70;3.88;;;;;;;;;;3596670;39;20401;-67
2021/07/19 03:19:53;;;;;;;15.40;4.35;;;;;;;;;;3595993;39;20135;-66
2021/07/19 03:22:20;;;;;;;23.73;4.43;;;;;;;;;;3595241;39;20021;-66
2021/07/19 03:24:54;;;;;;;18.08;4.20;;;;;;;;;;3599493;39;20121;-66
2021/07/19 03:27:21;;;;;;;17.38;4.78;;;;;;;;;;3595083;39;20047;-67
2021/07/19 03:29:48;;;;;;;17.58;5.00;;;;;;;;;;3595312;39;20063;-67
2021/07/19 03:32:17;;;;;;;22.63;4.18;;;;;;;;;;3595340;39;20044;-67
2021/07/19 03:34:43;;;;;;;19.17;3.97;;;;;;;;;;3595995;39;20031;-66
2021/07/19 03:37:11;;;;;;;21.27;4.53;;;;;;;;;;3595262;39;20033;-66
2021/07/19 03:39:39;;;;;;;22.15;5.07;;;;;;;;;;3596050;39;20055;-67
2021/07/19 03:42:04;;;;;;;14.53;4.53;;;;;;;;;;3597107;39;20029;-67
2021/07/19 03:44:34;;;;;;;14.70;4.32;;;;;;;;;;3594947;39;20286;-67
2021/07/19 03:47:01;;;;;;;16.65;4.50;;;;;;;;;;3593794;39;20036;-66
2021/07/19 03:49:26;;;;;;;20.23;4.65;;;;;;;;;;3594765;39;20051;-67
2021/07/19 03:51:52;;;;;;;18.13;4.03;;;;;;;;;;3596250;39;20039;-66
2021/07/19 03:54:17;;;;;;;16.47;3.70;;;;;;;;;;3597805;39;20080;-66
2021/07/19 03:56:43;;;;;;;21.42;4.68;;;;;;;;;;3596166;39;20261;-67
2021/07/19 03:59:10;;;;;;;14.18;3.60;;;;;;;;;;3594000;39;20512;-66
2021/07/19 04:01:38;;;;;;;20.55;4.68;;;;;;;;;;3586358;39;20040;-67
2021/07/19 04:04:08;;;;;;;15.85;3.75;;;;;;;;;;3593716;39;20063;-66
2021/07/19 04:06:43;;;;;;;17.73;4.47;;;;;;;;;;3593418;39;20393;-66
2021/07/19 04:09:09;;;;;;;12.00;3.90;;;;;;;;;;3600199;39;20042;-67
2021/07/19 04:11:37;;;;;;;19.60;4.03;;;;;;;;;;3594883;39;20349;-67
2021/07/19 04:14:06;;;;;;;20.42;4.00;;;;;;;;;;3595262;39;20024;-67
2021/07/19 04:16:33;;;;;;;19.73;4.38;;;;;;;;;;3600348;39;20765;-67
2021/07/19 04:18:59;;;;;;;14.90;4.05;;;;;;;;;;3594180;39;20120;-67
2021/07/19 04:21:24;;;;;;;22.27;4.17;;;;;;;;;;3598750;39;20133;-66
2021/07/19 04:23:53;;;;;;;16.23;3.67;;;;;;;;;;3595903;39;20305;-66
2021/07/19 04:26:23;;;;;;;16.38;3.80;;;;;;;;;;3596952;39;20028;-66
2021/07/19 04:28:56;;;;;;;19.27;3.90;;;;;;;;;;3598227;39;20044;-67
2021/07/19 04:31:23;;;;;;;16.20;4.00;;;;;;;;;;3597217;39;20152;-67
2021/07/19 04:33:55;;;;;;;18.88;3.80;;;;;;;;;;3595875;39;20024;-66
2021/07/19 04:36:28;;;;;;;14.00;3.88;;;;;;;;;;3599656;39;20087;-67
2021/07/19 04:38:54;;;;;;;22.48;4.65;;;;;;;;;;3597538;39;20024;-66
2021/07/19 04:41:19;;;;;;;10.73;3.33;;;;;;;;;;3596853;39;20043;-67
2021/07/19 04:43:44;;;;;;;18.83;3.92;;;;;;;;;;3595879;39;20333;-67
2021/07/19 04:46:09;;;;;;;18.17;4.97;;;;;;;;;;3595738;39;20047;-66
2021/07/19 04:48:35;;;;;;;15.40;3.80;;;;;;;;;;3594991;39;20028;-67
2021/07/19 04:51:00;;;;;;;13.50;4.20;;;;;;;;;;3596769;39;20115;-67
2021/07/19 04:53:25;;;;;;;15.50;4.30;;;;;;;;;;3594423;39;20465;-67
2021/07/19 04:55:50;;;;;;;16.23;3.77;;;;;;;;;;3597838;39;20046;-67
2021/07/19 04:58:15;;;;;;;14.63;4.13;;;;;;;;;;3598118;39;20031;-67
2021/07/19 05:00:41;;;;;;;19.30;4.28;;;;;;;;;;3595740;39;20043;-59
2021/07/19 05:03:06;;;;;;;16.37;4.10;;;;;;;;;;3594563;39;20031;-59
2021/07/19 05:05:31;;;;;;;20.67;4.33;;;;;;;;;;3593746;39;20032;-59
2021/07/19 05:07:56;;;;;;;19.30;4.20;;;;;;;;;;3596157;39;20647;-59
2021/07/19 05:10:23;;;;;;;14.33;3.83;;;;;;;;;;3595675;39;20273;-59
2021/07/19 05:12:51;;;;;;;15.55;4.57;;;;;;;;;;3597162;39;20124;-60
2021/07/19 05:15:16;;;;;;;15.82;3.60;;;;;;;;;;3595811;39;20040;-59
2021/07/19 05:17:42;;;;;;;11.13;3.97;;;;;;;;;;3599502;39;20047;-59
2021/07/19 05:20:07;;;;;;;18.60;4.17;;;;;;;;;;3598065;39;20105;-59
2021/07/19 05:22:32;;;;;;;20.60;4.20;;;;;;;;;;3597520;39;20024;-59
2021/07/19 05:24:57;;;;;;;15.23;3.73;;;;;;;;;;3597016;39;20024;-59
2021/07/19 05:27:23;;;;;;;18.90;4.40;;;;;;;;;;3593373;39;20016;-59
2021/07/19 05:29:50;;;;;;;17.10;4.87;;;;;;;;;;3595172;39;20113;-59
2021/07/19 05:32:15;;;;;;;18.52;4.53;;;;;;;;;;3595510;39;20040;-59
2021/07/19 05:34:41;;;;;;;15.37;4.00;;;;;;;;;;3593785;39;20039;-59
2021/07/19 05:37:06;;;;;;;16.37;4.67;;;;;;;;;;3595074;39;20673;-59
2021/07/19 05:39:31;;;;;;;9.20;3.78;;;;;;;;;;3595028;39;20098;-59
2021/07/19 05:41:57;;;;;;;12.98;4.38;;;;;;;;;;3582904;39;20125;-59
2021/07/19 05:44:22;;;;;;;14.50;4.47;;;;;;;;;;3595911;39;20036;-59
2021/07/19 05:46:47;;;;;;;14.73;4.93;;;;;;;;;;3597655;39;20474;-59
2021/07/19 05:49:12;;;;;;;15.48;4.65;;;;;;;;;;3592912;39;20044;-59
2021/07/19 05:51:38;;;;;;;20.50;5.20;;;;;;;;;;3594642;39;20024;-59
2021/07/19 05:54:03;;;;;;;16.90;4.47;;;;;;;;;;3596785;39;20262;-59
2021/07/19 05:56:28;;;;;;;14.40;4.82;;;;;;;;;;3593799;39;20181;-59
2021/07/19 05:58:54;;;;;;;11.03;4.03;;;;;;;;;;3599048;39;20035;-59
2021/07/19 06:01:19;;;;;;;13.50;4.88;;;;;;;;;;3598078;39;20293;-59
2021/07/19 06:03:44;;;;;;;19.60;5.70;;;;;;;;;;3597754;39;20043;-59
2021/07/19 06:06:10;;;;;;;15.50;4.50;;;;;;;;;;3598714;39;20080;-59
2021/07/19 06:08:35;;;;;;;11.65;4.53;;;;;;;;;;3597866;39;21033;-59
2021/07/19 06:11:00;;;;;;;18.13;4.80;;;;;;;;;;3596658;39;20052;-59
2021/07/19 06:13:25;;;;;;;16.30;5.03;;;;;;;;;;3595453;39;20265;-60
2021/07/19 06:15:51;;;;;;;15.40;4.60;;;;;;;;;;3599120;39;20120;-59
2021/07/19 06:18:16;;;;;;;15.40;5.77;;;;;;;;;;3597347;39;20261;-60
2021/07/19 06:20:41;;;;;;;21.10;4.70;;;;;;;;;;3597256;39;20119;-59
2021/07/19 06:23:06;;;;;;;16.77;4.80;;;;;;;;;;3598484;39;20035;-59
2021/07/19 06:25:32;;;;;;;13.67;5.20;;;;;;;;;;3598410;39;20035;-59
2021/07/19 06:27:57;;;;;;;20.90;6.33;;;;;;;;;;3597854;39;20253;-59
2021/07/19 06:30:22;;;;;;;15.27;5.32;;;;;;;;;;3594121;39;20031;-59
2021/07/19 06:32:47;;;;;;;12.30;4.47;;;;;;;;;;3599688;39;20300;-59
2021/07/19 06:35:12;;;;;;;14.07;4.80;;;;;;;;;;3596224;39;20404;-59
2021/07/19 06:37:38;;;;;;;18.33;5.30;;;;;;;;;;3597608;39;20055;-59
2021/07/19 06:40:03;;;;;;;19.77;5.50;;;;;;;;;;3596468;39;20027;-59
2021/07/19 06:42:28;;;;;;;10.80;4.97;;;;;;;;;;3597878;39;20383;-60
2021/07/19 06:44:56;;;;;;;11.03;4.63;;;;;;;;;;3599862;39;20044;-59
2021/07/19 06:47:21;;;;;;;17.52;4.88;;;;;;;;;;3598426;39;20792;-66
2021/07/19 06:49:47;;;;;;;12.98;4.95;;;;;;;;;;3598072;39;20040;-66
2021/07/19 06:52:12;;;;;;;16.07;4.93;;;;;;;;;;3596539;39;20035;-67
2021/07/19 06:54:37;;;;;;;12.30;4.40;;;;;;;;;;3597232;39;20020;-66
2021/07/19 06:57:02;;;;;;;15.53;4.57;;;;;;;;;;3597046;39;20032;-66
2021/07/19 06:59:27;;;;;;;11.10;4.90;;;;;;;;;;3595257;39;20078;-66
2021/07/19 07:01:53;;;;;;;12.87;4.73;;;;;;;;;;3596965;39;20132;-66
2021/07/19 07:04:18;;;;;;;11.07;4.60;;;;;;;;;;3596999;39;20280;-67
2021/07/19 07:06:43;;;;;;;14.87;5.03;;;;;;;;;;3595973;39;20035;-67
2021/07/19 07:09:08;;;;;;;9.43;4.30;;;;;;;;;;3597985;39;20036;-67
2021/07/19 07:11:33;;;;;;;11.53;4.67;;;;;;;;;;3596808;39;20804;-66
2021/07/19 07:13:59;;;;;;;15.00;4.83;;;;;;;;;;3599297;39;20035;-67
2021/07/19 07:16:24;;;;;;;11.82;5.35;;;;;;;;;;3597053;39;20032;-67
2021/07/19 07:18:49;;;;;;;15.03;5.00;;;;;;;;;;3599958;39;20020;-67
2021/07/19 07:21:14;;;;;;;8.20;4.23;;;;;;;;;;3598651;39;20431;-67
2021/07/19 07:23:40;;;;;;;14.82;5.15;;;;;;;;;;3596197;39;20036;-67
2021/07/19 07:26:05;;;;;;;12.10;5.00;;;;;;;;;;3597930;39;20079;-67
2021/07/19 07:28:30;;;;;;;12.20;4.60;;;;;;;;;;3595010;39;20023;-67
2021/07/19 07:30:55;;;;;;;19.50;5.23;;;;;;;;;;3597449;39;20039;-67
2021/07/19 07:33:20;;;;;;;19.40;5.30;;;;;;;;;;3597435;39;20708;-67
2021/07/19 07:35:46;;;;;;;14.43;4.80;;;;;;;;;;3596854;39;20665;-67
2021/07/19 07:38:11;;;;;;;10.47;4.40;;;;;;;;;;3599927;39;20334;-67
2021/07/19 07:40:36;;;;;;;14.20;4.95;;;;;;;;;;3597243;39;20039;-66
2021/07/19 07:43:01;;;;;;;11.93;4.70;;;;;;;;;;3598840;39;20024;-59
2021/07/19 07:45:26;;;;;;;12.73;5.10;;;;;;;;;;3596820;39;20051;-59
2021/07/19 07:47:52;;;;;;;14.73;4.83;;;;;;;;;;3596258;39;20036;-60
2021/07/19 07:50:17;;;;;;;10.37;4.23;;;;;;;;;;3596683;39;20799;-59
2021/07/19 07:52:42;;;;;;;10.50;4.27;;;;;;;;;;3597782;39;20328;-60
2021/07/19 07:55:07;;;;;;;14.32;4.75;;;;;;;;;;3597469;39;20079;-59
2021/07/19 07:57:33;;;;;;;15.40;5.20;;;;;;;;;;3595332;39;20043;-60
2021/07/19 07:59:58;;;;;;;13.70;5.15;;;;;;;;;;3595019;39;20258;-60
2021/07/19 08:02:23;;;;;;;11.40;4.30;;;;;;;;;;3597623;39;20028;-59
2021/07/19 08:04:48;;;;;;;11.80;4.17;;;;;;;;;;3597757;39;20697;-59
2021/07/19 08:07:14;;;;;;;7.57;4.30;;;;;;;;;;3598177;39;20039;-60
2021/07/19 08:09:39;;;;;;;12.77;4.10;;;;;;;;;;3600514;39;20145;-60
2021/07/19 08:12:04;;;;;;;10.57;4.10;;;;;;;;;;3598937;39;20033;-59
2021/07/19 08:14:29;;;;;;;11.53;4.50;;;;;;;;;;3597018;39;20661;-59
2021/07/19 08:16:55;;;;;;;11.63;4.23;;;;;;;;;;3595093;39;20020;-61
2021/07/19 08:19:20;;;;;;;12.97;4.67;;;;;;;;;;3597999;39;20035;-61
2021/07/19 08:21:45;;;;;;;19.60;6.77;;;;;;;;;;3596519;39;20039;-61
2021/07/19 08:24:10;;;;;;;17.27;7.47;;;;;;;;;;3597283;39;20102;-62
2021/07/19 08:26:36;;;;;;;13.80;4.57;;;;;;;;;;3589941;39;20300;-61
2021/07/19 08:29:01;;;;;;;10.57;4.50;;;;;;;;;;3599071;39;20031;-61
2021/07/19 08:31:26;;;;;;;10.83;4.40;;;;;;;;;;3595696;39;20023;-61
2021/07/19 08:33:51;;;;;;;8.35;4.00;;;;;;;;;;3597108;39;20405;-61
2021/07/19 08:36:17;;;;;;;18.93;4.60;;;;;;;;;;3595458;39;20032;-61
2021/07/19 08:38:42;;;;;;;8.57;4.03;;;;;;;;;;3597424;39;20032;-61
2021/07/19 08:41:07;;;;;;;12.67;4.20;;;;;;;;;;3595344;39;20703;-61
2021/07/19 08:43:33;;;;;;;31.20;14.43;;;;;;;;;;3594289;39;20270;-61
2021/07/19 08:45:58;;;;;;;19.90;6.68;;;;;;;;;;3596216;39;20044;-62
2021/07/19 08:48:24;;;;;;;30.37;12.63;;;;;;;;;;3599696;39;20040;-61
2021/07/19 08:50:49;;;;;;;11.57;5.07;;;;;;;;;;3594646;39;20036;-61
2021/07/19 08:53:14;;;;;;;14.97;5.33;;;;;;;;;;3597734;39;20363;-61
2021/07/19 08:55:40;;;;;;;13.50;4.95;;;;;;;;;;3596511;39;20035;-61
2021/07/19 08:58:05;;;;;;;12.73;4.40;;;;;;;;;;3596067;39;20036;-61
2021/07/19 09:00:30;;;;;;;12.20;4.10;;;;;;;;;;3595381;39;20375;-61
2021/07/19 09:02:56;;;;;;;9.38;4.60;;;;;;;;;;3592188;39;20670;-61
2021/07/19 09:05:21;;;;;;;15.65;7.43;;;;;;;;;;3594772;39;20468;-62
2021/07/19 09:07:46;;;;;;;19.58;8.50;;;;;;;;;;3598801;39;20530;-61
2021/07/19 09:10:12;;;;;;;21.80;10.27;;;;;;;;;;3597412;39;20396;-62
2021/07/19 09:12:38;;;;;;;11.75;4.72;;;;;;;;;;3595174;39;20460;-61
2021/07/19 09:15:03;;;;;;;15.57;4.43;;;;;;;;;;3599194;39;20020;-61
2021/07/19 09:17:29;;;;;;;8.50;4.37;;;;;;;;;;3593034;39;20105;-60
2021/07/19 09:19:54;;;;;;;12.30;4.63;;;;;;;;;;3595528;39;20040;-61
2021/07/19 09:22:19;;;;;;;11.47;4.60;;;;;;;;;;3594442;39;20052;-61
2021/07/19 09:24:44;;;;;;;11.50;4.77;;;;;;;;;;3597097;39;20686;-61
2021/07/19 09:27:09;;;;;;;10.90;4.50;;;;;;;;;;3598375;39;20031;-61
2021/07/19 09:29:35;;;;;;;10.37;4.43;;;;;;;;;;3597468;39;20128;-61
2021/07/19 09:32:00;;;;;;;9.03;4.73;;;;;;;;;;3597887;39;20043;-61
2021/07/19 09:34:25;;;;;;;9.40;4.60;;;;;;;;;;3597378;39;20499;-61
2021/07/19 09:36:51;;;;;;;7.78;4.63;;;;;;;;;;3597144;39;20032;-61
2021/07/19 09:39:16;;;;;;;9.97;4.43;;;;;;;;;;3596793;39;20028;-61
2021/07/19 09:41:41;;;;;;;10.13;4.60;;;;;;;;;;3596776;39;20692;-62
2021/07/19 09:44:07;;;;;;;13.03;4.77;;;;;;;;;;3598843;39;20063;-61
2021/07/19 09:46:35;;;;;;;9.45;4.25;;;;;;;;;;3596353;39;20398;-61
2021/07/19 09:49:00;;;;;;;7.38;4.30;;;;;;;;;;3599276;39;20023;-61
2021/07/19 09:51:26;;;;;;;10.17;4.30;;;;;;;;;;3594415;39;20079;-61
2021/07/19 09:53:51;;;;;;;10.80;4.77;;;;;;;;;;3595697;39;20132;-61
2021/07/19 09:56:16;;;;;;;8.23;4.50;;;;;;;;;;3599097;39;20063;-61
2021/07/19 09:58:41;;;;;;;8.43;4.23;;;;;;;;;;3596562;39;21087;-61
2021/07/19 10:01:07;;;;;;;8.67;4.60;;;;;;;;;;3596380;39;20317;-61
2021/07/19 10:03:33;;;;;;;8.00;5.00;;;;;;;;;;3597520;39;20396;-62
2021/07/19 10:05:58;;;;;;;12.77;6.35;;;;;;;;;;3598330;39;20383;-61
2021/07/19 10:08:23;;;;;;;8.77;4.23;;;;;;;;;;3598361;39;20036;-61
2021/07/19 10:10:48;;;;;;;16.30;7.60;;;;;;;;;;3599868;39;20051;-62
2021/07/19 10:13:16;;;;;;;10.90;4.33;;;;;;;;;;3596762;39;20270;-61
2021/07/19 10:15:41;;;;;;;11.00;4.30;;;;;;;;;;3599005;39;20040;-62
2021/07/19 10:18:08;;;;;;;9.67;4.40;;;;;;;;;;3598968;39;20027;-61
2021/07/19 10:20:34;;;;;;;8.68;4.53;;;;;;;;;;3599271;39;20023;-62
2021/07/19 10:22:59;;;;;;;10.77;4.00;;;;;;;;;;3598109;39;20028;-62
2021/07/19 10:25:24;;;;;;;10.23;3.87;;;;;;;;;;3599799;39;20023;-62
2021/07/19 10:27:49;;;;;;;9.57;4.20;;;;;;;;;;3599209;39;20036;-62
2021/07/19 10:30:15;;;;;;;8.67;3.90;;;;;;;;;;3597446;39;20163;-62
2021/07/19 10:32:40;;;;;;;12.40;4.15;;;;;;;;;;3600682;39;20030;-62
2021/07/19 10:35:05;;;;;;;8.20;4.43;;;;;;;;;;3599671;39;20046;-62
2021/07/19 10:37:30;;;;;;;11.73;4.40;;;;;;;;;;3597445;39;20072;-62
2021/07/19 10:39:56;;;;;;;12.70;3.80;;;;;;;;;;3595166;39;20581;-62
2021/07/19 10:42:22;;;;;;;9.30;3.43;;;;;;;;;;3596962;39;20031;-62
2021/07/19 10:44:47;;;;;;;7.93;3.67;;;;;;;;;;3598473;39;20039;-62
2021/07/19 10:47:12;;;;;;;8.50;3.90;;;;;;;;;;3598212;39;20028;-62
2021/07/19 10:49:41;;;;;;;9.03;4.00;;;;;;;;;;3596813;39;20016;-62
2021/07/19 10:52:06;;;;;;;8.55;3.97;;;;;;;;;;3597086;39;20036;-62
2021/07/19 10:54:31;;;;;;;10.00;3.87;;;;;;;;;;3597036;39;20028;-62
2021/07/19 10:57:01;;;;;;;8.63;3.93;;;;;;;;;;3597438;39;20897;-62
2021/07/19 10:59:26;;;;;;;7.93;3.60;;;;;;;;;;3597614;39;20020;-62
2021/07/19 11:01:51;;;;;;;8.77;3.92;;;;;;;;;;3594676;39;20040;-62
2021/07/19 11:04:17;;;;;;;8.38;3.85;;;;;;;;;;3597531;39;20024;-62
2021/07/19 11:06:49;;;;;;;8.23;4.20;;;;;;;;;;3596896;39;20030;-62
2021/07/19 11:09:14;;;;;;;7.78;4.07;;;;;;;;;;3595347;39;20035;-62
2021/07/19 11:11:40;;;;;;;7.78;3.53;;;;;;;;;;3598361;39;20024;-62
2021/07/19 11:14:05;;;;;;;8.77;4.03;;;;;;;;;;3595901;39;20096;-62
2021/07/19 11:16:30;;;;;;;9.00;4.03;;;;;;;;;;3596498;39;20032;-61
2021/07/19 11:18:56;;;;;;;8.07;4.03;;;;;;;;;;3598043;39;20338;-62
2021/07/19 11:21:21;;;;;;;14.80;3.60;;;;;;;;;;3596229;39;20024;-61
2021/07/19 11:23:46;;;;;;;7.63;3.55;;;;;;;;;;3595897;39;20104;-62
2021/07/19 11:26:12;;;;;;;9.03;4.00;;;;;;;;;;3597554;39;20028;-65
2021/07/19 11:28:40;;;;;;;7.65;3.30;;;;;;;;;;3589149;39;20085;-65
2021/07/19 11:31:05;;;;;;;10.38;3.60;;;;;;;;;;3595683;39;20039;-65
2021/07/19 11:33:31;;;;;;;13.88;5.70;;;;;;;;;;3586552;39;20492;-65
2021/07/19 11:35:57;;;;;;;9.33;3.83;;;;;;;;;;3597792;39;20058;-66
2021/07/19 11:38:22;;;;;;;16.55;3.90;;;;;;;;;;3596336;39;20032;-66
2021/07/19 11:40:47;;;;;;;10.63;4.17;;;;;;;;;;3598438;39;20039;-65
2021/07/19 11:43:15;;;;;;;8.03;3.07;;;;;;;;;;3597575;39;20065;-65
2021/07/19 11:45:40;;;;;;;8.40;3.67;;;;;;;;;;3597258;39;20040;-65
2021/07/19 11:48:05;;;;;;;9.53;3.80;;;;;;;;;;3597133;39;20284;-65
2021/07/19 11:50:31;;;;;;;7.45;3.88;;;;;;;;;;3595635;39;20288;-65
2021/07/19 11:52:56;;;;;;;9.03;3.50;;;;;;;;;;3593330;39;20442;-65
2021/07/19 11:55:21;;;;;;;10.90;3.90;;;;;;;;;;3595484;39;20048;-64
2021/07/19 11:57:47;;;;;;;10.82;4.20;;;;;;;;;;3597675;39;20311;-60
2021/07/19 12:00:12;;;;;;;7.75;3.45;;;;;;;;;;3596502;39;20758;-60
2021/07/19 12:02:37;;;;;;;10.27;3.60;;;;;;;;;;3594972;39;20040;-60
2021/07/19 12:05:02;;;;;;;7.13;3.50;;;;;;;;;;3598846;39;20044;-67
2021/07/19 12:07:28;;;;;;;8.18;3.65;;;;;;;;;;3600053;39;20433;-67
2021/07/19 12:09:53;;;;;;;6.20;3.30;;;;;;;;;;3598277;39;20742;-67
2021/07/19 12:12:18;;;;;;;7.00;3.42;;;;;;;;;;3595941;39;20036;-68
2021/07/19 12:14:46;;;;;;;10.57;3.50;;;;;;;;;;3596860;39;20042;-68
2021/07/19 12:17:11;;;;;;;8.07;3.53;;;;;;;;;;3597438;39;20518;-68
2021/07/19 12:19:37;;;;;;;6.65;3.78;;;;;;;;;;3598035;39;20035;-67
2021/07/19 12:22:03;;;;;;;12.48;3.95;;;;;;;;;;3596186;39;20671;-68
2021/07/19 12:24:28;;;;;;;6.03;3.42;;;;;;;;;;3597788;39;20028;-67
2021/07/19 12:26:56;;;;;;;8.60;4.10;;;;;;;;;;3597540;39;20405;-68
2021/07/19 12:29:21;;;;;;;12.88;4.05;;;;;;;;;;3594944;39;20035;-66
2021/07/19 12:31:47;;;;;;;7.85;3.53;;;;;;;;;;3596667;39;20615;-68
2021/07/19 12:34:13;;;;;;;10.15;3.90;;;;;;;;;;3594600;39;20028;-67
2021/07/19 12:36:39;;;;;;;6.57;3.40;;;;;;;;;;3595370;39;20032;-67
2021/07/19 12:39:04;;;;;;;5.10;3.23;;;;;;;;;;3596084;39;20113;-67
2021/07/19 12:41:29;;;;;;;8.70;3.50;;;;;;;;;;3597095;39;20276;-67
2021/07/19 12:43:54;;;;;;;7.47;3.67;;;;;;;;;;3594811;39;20028;-68
2021/07/19 12:46:20;;;;;;;8.63;4.63;;;;;;;;;;3593251;39;20064;-67
2021/07/19 12:48:45;;;;;;;10.60;3.67;;;;;;;;;;3595391;39;20040;-68
2021/07/19 12:51:10;;;;;;;7.73;3.40;;;;;;;;;;3592031;39;20724;-68
2021/07/19 12:53:35;;;;;;;8.47;3.77;;;;;;;;;;3597443;39;20024;-68
2021/07/19 12:56:01;;;;;;;7.30;3.42;;;;;;;;;;3595042;39;20040;-68
2021/07/19 12:58:26;;;;;;;7.47;4.17;;;;;;;;;;3596536;39;20036;-68
2021/07/19 13:00:53;;;;;;;8.17;3.63;;;;;;;;;;3596058;39;20133;-67
2021/07/19 13:03:18;;;;;;;8.23;3.25;;;;;;;;;;3597679;39;20289;-68
2021/07/19 13:05:44;;;;;;;8.80;3.40;;;;;;;;;;3595444;39;20031;-68
2021/07/19 13:08:09;;;;;;;10.17;3.50;;;;;;;;;;3596753;39;20028;-61
2021/07/19 13:10:34;;;;;;;8.13;3.70;;;;;;;;;;3596291;39;20066;-61
2021/07/19 13:13:00;;;;;;;11.90;5.10;;;;;;;;;;3598195;39;20048;-60
2021/07/19 13:15:27;;;;;;;7.05;3.90;;;;;;;;;;3598307;39;20417;-60
2021/07/19 13:17:53;;;;;;;11.13;4.45;;;;;;;;;;3595374;39;20027;-60
2021/07/19 13:20:18;;;;;;;6.53;3.73;;;;;;;;;;3595608;39;20024;-64
2021/07/19 13:22:43;;;;;;;7.72;3.05;;;;;;;;;;3595846;39;20020;-65
2021/07/19 13:25:08;;;;;;;6.77;3.33;;;;;;;;;;3598769;39;20040;-65
2021/07/19 13:27:34;;;;;;;8.90;3.70;;;;;;;;;;3596009;39;20043;-65
2021/07/19 13:29:59;;;;;;;6.60;3.37;;;;;;;;;;3595276;39;20020;-65
2021/07/19 13:32:24;;;;;;;5.78;3.38;;;;;;;;;;3594224;39;20178;-65
2021/07/19 13:34:50;;;;;;;5.47;3.23;;;;;;;;;;3598260;39;20132;-64
2021/07/19 13:37:15;;;;;;;6.30;3.67;;;;;;;;;;3596761;39;20269;-65
2021/07/19 13:39:40;;;;;;;9.87;4.90;;;;;;;;;;3595640;39;20817;-65
2021/07/19 13:42:05;;;;;;;8.43;4.47;;;;;;;;;;3597997;39;20035;-65
2021/07/19 13:44:30;;;;;;;7.27;3.63;;;;;;;;;;3596661;39;20095;-65
2021/07/19 13:46:56;;;;;;;11.83;3.70;;;;;;;;;;3598450;39;20039;-65
2021/07/19 13:49:21;;;;;;;6.23;3.50;;;;;;;;;;3598284;39;20394;-66
2021/07/19 13:51:46;;;;;;;5.53;3.33;;;;;;;;;;3599717;39;20245;-65
2021/07/19 13:54:11;;;;;;;7.38;3.97;;;;;;;;;;3597889;39;20019;-65
2021/07/19 13:56:37;;;;;;;9.43;3.50;;;;;;;;;;3599029;39;20045;-67
2021/07/19 13:59:02;;;;;;;5.53;3.03;;;;;;;;;;3595175;39;20027;-67
2021/07/19 14:01:27;;;;;;;5.73;3.20;;;;;;;;;;3598548;39;20026;-68
2021/07/19 14:03:52;;;;;;;5.20;3.33;;;;;;;;;;3596103;39;20405;-65
2021/07/19 14:06:17;;;;;;;6.03;3.30;;;;;;;;;;3597947;39;20795;-67
2021/07/19 14:08:43;;;;;;;5.57;3.07;;;;;;;;;;3597609;39;20101;-67
2021/07/19 14:11:08;;;;;;;6.00;3.50;;;;;;;;;;3595883;39;20666;-67
2021/07/19 14:13:33;;;;;;;5.63;3.28;;;;;;;;;;3597327;39;20044;-69
2021/07/19 14:15:58;;;;;;;14.00;3.77;;;;;;;;;;3596920;39;20040;-67
2021/07/19 14:18:24;;;;;;;6.60;3.10;;;;;;;;;;3597970;39;20303;-67
2021/07/19 14:20:49;;;;;;;7.20;3.60;;;;;;;;;;3596213;39;20028;-67
2021/07/19 14:23:14;;;;;;;6.20;3.23;;;;;;;;;;3599383;39;20032;-68
2021/07/19 14:25:40;;;;;;;7.17;3.10;;;;;;;;;;3598510;39;20057;-67